sensor_id;sensor_type;location;lat;lon;timestamp;P1;durP1;ratioP1;P2;durP2;ratioP2
32172;SDS011;18679;45.190;5.722;2022-11-11T00:02:55;9.98;;;4.55;;
32172;SDS011;18679;45.190;5.722;2022-11-11T00:06:16;8.48;;;4.45;;
32172;SDS011;18679;45.190;5.722;2022-11-11T00:09:35;6.32;;;3.80;;
32172;SDS011;18679;45.190;5.722;2022-11-11T00:13:01;12.40;;;4.75;;
32172;SDS011;18679;45.190;5.722;2022-11-11T00:16:23;9.90;;;4.38;;
32172;SDS011;18679;45.190;5.722;2022-11-11T00:19:43;11.82;;;4.75;;
32172;SDS011;18679;45.190;5.722;2022-11-11T00:23:21;9.10;;;3.90;;
32172;SDS011;18679;45.190;5.722;2022-11-11T00:27:02;12.50;;;4.35;;
32172;SDS011;18679;45.190;5.722;2022-11-11T00:30:22;8.95;;;3.67;;
32172;SDS011;18679;45.190;5.722;2022-11-11T00:33:42;8.10;;;4.05;;
32172;SDS011;18679;45.190;5.722;2022-11-11T00:37:02;12.02;;;4.20;;
32172;SDS011;18679;45.190;5.722;2022-11-11T00:40:21;9.38;;;4.88;;
32172;SDS011;18679;45.190;5.722;2022-11-11T00:43:41;8.18;;;4.32;;
32172;SDS011;18679;45.190;5.722;2022-11-11T00:47:02;9.05;;;4.28;;
32172;SDS011;18679;45.190;5.722;2022-11-11T00:50:40;17.90;;;5.38;;
32172;SDS011;18679;45.190;5.722;2022-11-11T00:54:17;13.25;;;4.78;;
32172;SDS011;18679;45.190;5.722;2022-11-11T00:57:37;10.18;;;4.78;;
32172;SDS011;18679;45.190;5.722;2022-11-11T01:00:57;10.35;;;4.78;;
32172;SDS011;18679;45.190;5.722;2022-11-11T01:04:16;8.80;;;4.45;;
32172;SDS011;18679;45.190;5.722;2022-11-11T01:07:36;9.70;;;4.68;;
32172;SDS011;18679;45.190;5.722;2022-11-11T01:10:55;9.75;;;4.22;;
32172;SDS011;18679;45.190;5.722;2022-11-11T01:14:15;12.52;;;5.20;;
32172;SDS011;18679;45.190;5.722;2022-11-11T01:17:35;10.75;;;5.53;;
32172;SDS011;18679;45.190;5.722;2022-11-11T01:21:14;9.57;;;5.22;;
32172;SDS011;18679;45.190;5.722;2022-11-11T01:24:35;11.02;;;5.25;;
32172;SDS011;18679;45.190;5.722;2022-11-11T01:27:56;12.00;;;4.93;;
32172;SDS011;18679;45.190;5.722;2022-11-11T01:31:16;11.25;;;4.75;;
32172;SDS011;18679;45.190;5.722;2022-11-11T01:34:36;13.60;;;5.13;;
32172;SDS011;18679;45.190;5.722;2022-11-11T01:37:56;10.50;;;5.05;;
32172;SDS011;18679;45.190;5.722;2022-11-11T01:41:19;10.73;;;5.65;;
32172;SDS011;18679;45.190;5.722;2022-11-11T01:44:52;13.40;;;5.97;;
32172;SDS011;18679;45.190;5.722;2022-11-11T01:48:20;16.45;;;5.90;;
32172;SDS011;18679;45.190;5.722;2022-11-11T01:52:35;12.02;;;5.78;;
32172;SDS011;18679;45.190;5.722;2022-11-11T01:55:58;9.70;;;5.20;;
32172;SDS011;18679;45.190;5.722;2022-11-11T01:59:20;9.50;;;4.78;;
32172;SDS011;18679;45.190;5.722;2022-11-11T02:06:39;8.50;;;4.93;;
32172;SDS011;18679;45.190;5.722;2022-11-11T02:09:59;10.02;;;4.60;;
32172;SDS011;18679;45.190;5.722;2022-11-11T02:13:21;13.93;;;4.70;;
32172;SDS011;18679;45.190;5.722;2022-11-11T02:16:59;12.07;;;4.85;;
32172;SDS011;18679;45.190;5.722;2022-11-11T02:20:21;10.90;;;5.10;;
32172;SDS011;18679;45.190;5.722;2022-11-11T02:23:44;8.93;;;4.80;;
32172;SDS011;18679;45.190;5.722;2022-11-11T02:27:20;12.85;;;4.45;;
32172;SDS011;18679;45.190;5.722;2022-11-11T02:30:42;9.85;;;4.40;;
32172;SDS011;18679;45.190;5.722;2022-11-11T02:34:02;9.65;;;4.45;;
32172;SDS011;18679;45.190;5.722;2022-11-11T02:37:22;9.75;;;5.25;;
32172;SDS011;18679;45.190;5.722;2022-11-11T02:40:44;8.00;;;4.63;;
32172;SDS011;18679;45.190;5.722;2022-11-11T02:44:25;8.60;;;4.60;;
32172;SDS011;18679;45.190;5.722;2022-11-11T02:47:45;8.93;;;4.72;;
32172;SDS011;18679;45.190;5.722;2022-11-11T02:51:05;10.10;;;4.65;;
32172;SDS011;18679;45.190;5.722;2022-11-11T02:54:26;9.30;;;4.45;;
32172;SDS011;18679;45.190;5.722;2022-11-11T02:57:45;15.35;;;5.55;;
32172;SDS011;18679;45.190;5.722;2022-11-11T03:01:05;10.73;;;4.30;;
32172;SDS011;18679;45.190;5.722;2022-11-11T03:04:25;12.13;;;4.88;;
32172;SDS011;18679;45.190;5.722;2022-11-11T03:07:45;9.75;;;4.90;;
32172;SDS011;18679;45.190;5.722;2022-11-11T03:11:04;10.07;;;4.72;;
32172;SDS011;18679;45.190;5.722;2022-11-11T03:14:24;9.30;;;4.30;;
32172;SDS011;18679;45.190;5.722;2022-11-11T03:17:44;9.80;;;4.63;;
32172;SDS011;18679;45.190;5.722;2022-11-11T03:21:04;8.95;;;4.35;;
32172;SDS011;18679;45.190;5.722;2022-11-11T03:24:23;10.18;;;4.68;;
32172;SDS011;18679;45.190;5.722;2022-11-11T03:28:13;8.02;;;4.38;;
32172;SDS011;18679;45.190;5.722;2022-11-11T03:31:35;9.15;;;4.55;;
32172;SDS011;18679;45.190;5.722;2022-11-11T03:34:55;7.68;;;4.20;;
32172;SDS011;18679;45.190;5.722;2022-11-11T03:38:14;10.63;;;4.30;;
32172;SDS011;18679;45.190;5.722;2022-11-11T03:41:34;10.00;;;4.72;;
32172;SDS011;18679;45.190;5.722;2022-11-11T03:44:54;9.02;;;4.20;;
32172;SDS011;18679;45.190;5.722;2022-11-11T03:48:13;6.88;;;3.83;;
32172;SDS011;18679;45.190;5.722;2022-11-11T03:51:33;8.80;;;4.55;;
32172;SDS011;18679;45.190;5.722;2022-11-11T03:54:53;12.43;;;4.28;;
32172;SDS011;18679;45.190;5.722;2022-11-11T03:58:13;7.32;;;4.00;;
32172;SDS011;18679;45.190;5.722;2022-11-11T04:01:33;7.03;;;3.75;;
32172;SDS011;18679;45.190;5.722;2022-11-11T04:05:11;6.88;;;3.70;;
32172;SDS011;18679;45.190;5.722;2022-11-11T04:08:49;10.68;;;3.88;;
32172;SDS011;18679;45.190;5.722;2022-11-11T04:12:27;8.73;;;3.83;;
32172;SDS011;18679;45.190;5.722;2022-11-11T04:15:49;10.02;;;3.60;;
32172;SDS011;18679;45.190;5.722;2022-11-11T04:19:27;7.65;;;3.75;;
32172;SDS011;18679;45.190;5.722;2022-11-11T04:23:05;10.13;;;4.18;;
32172;SDS011;18679;45.190;5.722;2022-11-11T04:26:24;14.45;;;4.47;;
32172;SDS011;18679;45.190;5.722;2022-11-11T04:29:44;6.53;;;3.58;;
32172;SDS011;18679;45.190;5.722;2022-11-11T04:33:09;6.53;;;3.38;;
32172;SDS011;18679;45.190;5.722;2022-11-11T04:36:28;9.23;;;4.22;;
32172;SDS011;18679;45.190;5.722;2022-11-11T04:39:48;13.07;;;3.97;;
32172;SDS011;18679;45.190;5.722;2022-11-11T04:43:27;8.73;;;3.95;;
32172;SDS011;18679;45.190;5.722;2022-11-11T04:46:47;7.50;;;4.10;;
32172;SDS011;18679;45.190;5.722;2022-11-11T04:50:06;10.32;;;4.20;;
32172;SDS011;18679;45.190;5.722;2022-11-11T04:53:26;8.07;;;4.43;;
32172;SDS011;18679;45.190;5.722;2022-11-11T04:56:48;7.10;;;4.22;;
32172;SDS011;18679;45.190;5.722;2022-11-11T05:00:08;7.90;;;3.80;;
32172;SDS011;18679;45.190;5.722;2022-11-11T05:03:29;6.35;;;3.35;;
32172;SDS011;18679;45.190;5.722;2022-11-11T05:06:49;11.23;;;3.92;;
32172;SDS011;18679;45.190;5.722;2022-11-11T05:10:27;6.85;;;4.00;;
32172;SDS011;18679;45.190;5.722;2022-11-11T05:13:47;3.92;;;3.08;;
32172;SDS011;18679;45.190;5.722;2022-11-11T05:17:25;7.15;;;3.88;;
32172;SDS011;18679;45.190;5.722;2022-11-11T05:21:06;6.97;;;3.88;;
32172;SDS011;18679;45.190;5.722;2022-11-11T05:24:40;4.38;;;2.60;;
32172;SDS011;18679;45.190;5.722;2022-11-11T05:28:18;4.40;;;2.53;;
32172;SDS011;18679;45.190;5.722;2022-11-11T05:31:37;5.32;;;2.92;;
32172;SDS011;18679;45.190;5.722;2022-11-11T05:34:57;4.75;;;2.65;;
32172;SDS011;18679;45.190;5.722;2022-11-11T05:38:17;6.90;;;3.35;;
32172;SDS011;18679;45.190;5.722;2022-11-11T05:41:39;6.63;;;3.00;;
32172;SDS011;18679;45.190;5.722;2022-11-11T05:44:58;6.07;;;3.22;;
32172;SDS011;18679;45.190;5.722;2022-11-11T05:48:18;6.20;;;3.53;;
32172;SDS011;18679;45.190;5.722;2022-11-11T05:51:38;6.70;;;3.38;;
32172;SDS011;18679;45.190;5.722;2022-11-11T05:54:57;6.07;;;3.50;;
32172;SDS011;18679;45.190;5.722;2022-11-11T05:58:17;3.85;;;2.53;;
32172;SDS011;18679;45.190;5.722;2022-11-11T06:01:38;5.75;;;2.95;;
32172;SDS011;18679;45.190;5.722;2022-11-11T06:04:57;5.38;;;2.85;;
32172;SDS011;18679;45.190;5.722;2022-11-11T06:08:17;6.13;;;3.35;;
32172;SDS011;18679;45.190;5.722;2022-11-11T06:11:37;7.47;;;3.17;;
32172;SDS011;18679;45.190;5.722;2022-11-11T06:14:56;4.90;;;3.30;;
32172;SDS011;18679;45.190;5.722;2022-11-11T06:18:16;8.35;;;3.80;;
32172;SDS011;18679;45.190;5.722;2022-11-11T06:21:35;5.57;;;3.17;;
32172;SDS011;18679;45.190;5.722;2022-11-11T06:25:15;9.88;;;3.58;;
32172;SDS011;18679;45.190;5.722;2022-11-11T06:28:54;6.32;;;3.10;;
32172;SDS011;18679;45.190;5.722;2022-11-11T06:32:14;5.95;;;3.17;;
32172;SDS011;18679;45.190;5.722;2022-11-11T06:35:38;6.32;;;3.22;;
32172;SDS011;18679;45.190;5.722;2022-11-11T06:39:01;7.88;;;3.00;;
32172;SDS011;18679;45.190;5.722;2022-11-11T06:42:20;5.22;;;3.08;;
32172;SDS011;18679;45.190;5.722;2022-11-11T06:45:40;13.18;;;3.55;;
32172;SDS011;18679;45.190;5.722;2022-11-11T06:49:00;5.20;;;3.10;;
32172;SDS011;18679;45.190;5.722;2022-11-11T06:52:19;8.80;;;3.03;;
32172;SDS011;18679;45.190;5.722;2022-11-11T06:55:39;7.88;;;3.05;;
32172;SDS011;18679;45.190;5.722;2022-11-11T06:58:59;6.03;;;3.17;;
32172;SDS011;18679;45.190;5.722;2022-11-11T07:02:18;6.30;;;3.42;;
32172;SDS011;18679;45.190;5.722;2022-11-11T07:05:38;11.32;;;3.72;;
32172;SDS011;18679;45.190;5.722;2022-11-11T07:08:58;10.02;;;3.55;;
32172;SDS011;18679;45.190;5.722;2022-11-11T07:12:17;7.85;;;3.65;;
32172;SDS011;18679;45.190;5.722;2022-11-11T07:15:37;18.80;;;4.28;;
32172;SDS011;18679;45.190;5.722;2022-11-11T07:18:56;5.75;;;3.67;;
32172;SDS011;18679;45.190;5.722;2022-11-11T07:22:16;6.05;;;3.50;;
32172;SDS011;18679;45.190;5.722;2022-11-11T07:25:35;6.28;;;4.05;;
32172;SDS011;18679;45.190;5.722;2022-11-11T07:28:55;4.43;;;3.05;;
32172;SDS011;18679;45.190;5.722;2022-11-11T07:32:15;5.80;;;3.80;;
32172;SDS011;18679;45.190;5.722;2022-11-11T07:35:35;6.65;;;3.55;;
32172;SDS011;18679;45.190;5.722;2022-11-11T07:38:54;8.30;;;4.25;;
32172;SDS011;18679;45.190;5.722;2022-11-11T07:42:14;6.32;;;3.13;;
32172;SDS011;18679;45.190;5.722;2022-11-11T07:45:33;5.50;;;3.40;;
32172;SDS011;18679;45.190;5.722;2022-11-11T07:48:53;6.18;;;3.70;;
32172;SDS011;18679;45.190;5.722;2022-11-11T07:52:13;7.25;;;3.67;;
32172;SDS011;18679;45.190;5.722;2022-11-11T07:55:32;13.00;;;3.47;;
32172;SDS011;18679;45.190;5.722;2022-11-11T07:58:52;5.40;;;3.33;;
32172;SDS011;18679;45.190;5.722;2022-11-11T08:02:12;6.68;;;3.92;;
32172;SDS011;18679;45.190;5.722;2022-11-11T08:05:32;5.60;;;3.40;;
32172;SDS011;18679;45.190;5.722;2022-11-11T08:08:51;5.25;;;3.00;;
32172;SDS011;18679;45.190;5.722;2022-11-11T08:12:11;11.98;;;4.43;;
32172;SDS011;18679;45.190;5.722;2022-11-11T08:15:49;6.65;;;3.38;;
32172;SDS011;18679;45.190;5.722;2022-11-11T08:19:08;4.93;;;3.05;;
32172;SDS011;18679;45.190;5.722;2022-11-11T08:22:28;8.50;;;3.75;;
32172;SDS011;18679;45.190;5.722;2022-11-11T08:25:48;5.78;;;3.22;;
32172;SDS011;18679;45.190;5.722;2022-11-11T08:29:07;9.57;;;4.20;;
32172;SDS011;18679;45.190;5.722;2022-11-11T08:32:27;8.18;;;4.72;;
32172;SDS011;18679;45.190;5.722;2022-11-11T08:35:47;6.03;;;3.95;;
32172;SDS011;18679;45.190;5.722;2022-11-11T08:39:07;7.25;;;4.95;;
32172;SDS011;18679;45.190;5.722;2022-11-11T08:42:27;9.70;;;5.00;;
32172;SDS011;18679;45.190;5.722;2022-11-11T08:45:49;6.47;;;4.45;;
32172;SDS011;18679;45.190;5.722;2022-11-11T08:49:11;10.32;;;4.03;;
32172;SDS011;18679;45.190;5.722;2022-11-11T08:52:30;7.20;;;3.72;;
32172;SDS011;18679;45.190;5.722;2022-11-11T08:55:50;7.68;;;3.40;;
32172;SDS011;18679;45.190;5.722;2022-11-11T08:59:09;9.27;;;4.55;;
32172;SDS011;18679;45.190;5.722;2022-11-11T09:02:29;10.40;;;3.47;;
32172;SDS011;18679;45.190;5.722;2022-11-11T09:05:49;5.53;;;3.40;;
32172;SDS011;18679;45.190;5.722;2022-11-11T09:09:09;6.68;;;3.58;;
32172;SDS011;18679;45.190;5.722;2022-11-11T09:12:28;5.63;;;3.38;;
32172;SDS011;18679;45.190;5.722;2022-11-11T09:15:48;7.05;;;3.40;;
32172;SDS011;18679;45.190;5.722;2022-11-11T09:19:10;5.97;;;3.47;;
32172;SDS011;18679;45.190;5.722;2022-11-11T09:22:30;6.40;;;3.67;;
32172;SDS011;18679;45.190;5.722;2022-11-11T09:25:50;4.95;;;3.28;;
32172;SDS011;18679;45.190;5.722;2022-11-11T09:29:09;5.40;;;3.28;;
32172;SDS011;18679;45.190;5.722;2022-11-11T09:32:29;4.38;;;3.22;;
32172;SDS011;18679;45.190;5.722;2022-11-11T09:35:48;7.07;;;3.83;;
32172;SDS011;18679;45.190;5.722;2022-11-11T09:39:08;8.13;;;3.58;;
32172;SDS011;18679;45.190;5.722;2022-11-11T09:47:00;6.25;;;3.50;;
32172;SDS011;18679;45.190;5.722;2022-11-11T09:50:10;6.03;;;3.47;;
32172;SDS011;18679;45.190;5.722;2022-11-11T09:53:45;13.27;;;4.07;;
32172;SDS011;18679;45.190;5.722;2022-11-11T09:57:21;6.30;;;3.90;;
32172;SDS011;18679;45.190;5.722;2022-11-11T10:08:28;8.10;;;3.72;;
32172;SDS011;18679;45.190;5.722;2022-11-11T10:12:01;4.75;;;3.40;;
32172;SDS011;18679;45.190;5.722;2022-11-11T10:15:34;6.65;;;3.78;;
32172;SDS011;18679;45.190;5.722;2022-11-11T10:22:35;5.55;;;3.92;;
32172;SDS011;18679;45.190;5.722;2022-11-11T10:26:01;18.20;;;3.95;;
32172;SDS011;18679;45.190;5.722;2022-11-11T10:29:25;6.30;;;4.47;;
32172;SDS011;18679;45.190;5.722;2022-11-11T10:33:13;6.80;;;3.63;;
32172;SDS011;18679;45.190;5.722;2022-11-11T10:36:41;13.23;;;3.88;;
32172;SDS011;18679;45.190;5.722;2022-11-11T10:43:44;6.97;;;3.25;;
32172;SDS011;18679;45.190;5.722;2022-11-11T10:51:01;5.78;;;3.30;;
32172;SDS011;18679;45.190;5.722;2022-11-11T10:54:24;5.10;;;3.42;;
32172;SDS011;18679;45.190;5.722;2022-11-11T10:57:59;5.22;;;3.22;;
32172;SDS011;18679;45.190;5.722;2022-11-11T11:01:34;6.65;;;3.95;;
32172;SDS011;18679;45.190;5.722;2022-11-11T11:08:36;5.20;;;3.00;;
32172;SDS011;18679;45.190;5.722;2022-11-11T11:12:11;6.93;;;3.70;;
32172;SDS011;18679;45.190;5.722;2022-11-11T11:15:39;7.88;;;4.53;;
32172;SDS011;18679;45.190;5.722;2022-11-11T11:19:13;4.10;;;2.90;;
32172;SDS011;18679;45.190;5.722;2022-11-11T11:22:44;7.88;;;3.20;;
32172;SDS011;18679;45.190;5.722;2022-11-11T11:26:20;8.07;;;4.60;;
32172;SDS011;18679;45.190;5.722;2022-11-11T11:29:43;9.45;;;2.80;;
32172;SDS011;18679;45.190;5.722;2022-11-11T11:33:04;6.55;;;3.20;;
32172;SDS011;18679;45.190;5.722;2022-11-11T11:36:25;11.35;;;3.40;;
32172;SDS011;18679;45.190;5.722;2022-11-11T11:39:45;3.53;;;2.55;;
32172;SDS011;18679;45.190;5.722;2022-11-11T11:43:14;4.35;;;2.67;;
32172;SDS011;18679;45.190;5.722;2022-11-11T11:47:01;7.90;;;3.10;;
32172;SDS011;18679;45.190;5.722;2022-11-11T11:54:14;4.10;;;2.35;;
32172;SDS011;18679;45.190;5.722;2022-11-11T11:57:42;3.78;;;2.20;;
32172;SDS011;18679;45.190;5.722;2022-11-11T12:01:16;5.18;;;2.80;;
32172;SDS011;18679;45.190;5.722;2022-11-11T12:09:05;4.28;;;2.25;;
32172;SDS011;18679;45.190;5.722;2022-11-11T12:15:35;5.15;;;2.58;;
32172;SDS011;18679;45.190;5.722;2022-11-11T12:22:44;4.10;;;2.47;;
32172;SDS011;18679;45.190;5.722;2022-11-11T12:26:32;10.48;;;2.55;;
32172;SDS011;18679;45.190;5.722;2022-11-11T12:30:07;2.88;;;2.00;;
32172;SDS011;18679;45.190;5.722;2022-11-11T12:37:48;5.45;;;2.03;;
32172;SDS011;18679;45.190;5.722;2022-11-11T12:55:53;3.28;;;2.13;;
32172;SDS011;18679;45.190;5.722;2022-11-11T12:59:25;2.15;;;1.77;;
32172;SDS011;18679;45.190;5.722;2022-11-11T13:07:05;3.05;;;1.67;;
32172;SDS011;18679;45.190;5.722;2022-11-11T13:14:35;4.32;;;1.88;;
32172;SDS011;18679;45.190;5.722;2022-11-11T13:18:11;2.88;;;1.70;;
32172;SDS011;18679;45.190;5.722;2022-11-11T13:21:58;6.85;;;1.63;;
32172;SDS011;18679;45.190;5.722;2022-11-11T13:25:27;3.38;;;1.65;;
32172;SDS011;18679;45.190;5.722;2022-11-11T13:28:50;3.22;;;1.92;;
32172;SDS011;18679;45.190;5.722;2022-11-11T13:32:28;2.17;;;1.48;;
32172;SDS011;18679;45.190;5.722;2022-11-11T13:35:59;1.67;;;1.33;;
32172;SDS011;18679;45.190;5.722;2022-11-11T13:39:29;4.22;;;1.90;;
32172;SDS011;18679;45.190;5.722;2022-11-11T13:42:52;12.82;;;1.92;;
32172;SDS011;18679;45.190;5.722;2022-11-11T13:49:57;4.05;;;1.65;;
32172;SDS011;18679;45.190;5.722;2022-11-11T13:56:43;8.55;;;2.05;;
32172;SDS011;18679;45.190;5.722;2022-11-11T14:07:02;3.47;;;1.77;;
32172;SDS011;18679;45.190;5.722;2022-11-11T14:13:54;8.15;;;2.00;;
32172;SDS011;18679;45.190;5.722;2022-11-11T14:17:15;3.10;;;1.75;;
32172;SDS011;18679;45.190;5.722;2022-11-11T14:20:37;4.80;;;2.63;;
32172;SDS011;18679;45.190;5.722;2022-11-11T14:23:58;5.13;;;2.47;;
32172;SDS011;18679;45.190;5.722;2022-11-11T14:27:20;3.95;;;2.10;;
32172;SDS011;18679;45.190;5.722;2022-11-11T14:30:47;3.38;;;2.03;;
32172;SDS011;18679;45.190;5.722;2022-11-11T14:34:29;3.63;;;1.63;;
32172;SDS011;18679;45.190;5.722;2022-11-11T14:38:04;8.55;;;1.40;;
32172;SDS011;18679;45.190;5.722;2022-11-11T14:41:49;2.35;;;1.60;;
32172;SDS011;18679;45.190;5.722;2022-11-11T14:55:50;1.80;;;1.42;;
32172;SDS011;18679;45.190;5.722;2022-11-11T14:59:12;2.42;;;1.40;;
32172;SDS011;18679;45.190;5.722;2022-11-11T15:02:37;4.25;;;1.40;;
32172;SDS011;18679;45.190;5.722;2022-11-11T15:18:01;2.30;;;1.50;;
32172;SDS011;18679;45.190;5.722;2022-11-11T15:33:03;3.97;;;1.80;;
32172;SDS011;18679;45.190;5.722;2022-11-11T15:39:53;4.65;;;2.10;;
32172;SDS011;18679;45.190;5.722;2022-11-11T15:43:25;6.15;;;2.28;;
32172;SDS011;18679;45.190;5.722;2022-11-11T15:46:47;4.78;;;2.35;;
32172;SDS011;18679;45.190;5.722;2022-11-11T15:50:17;5.57;;;2.67;;
32172;SDS011;18679;45.190;5.722;2022-11-11T15:53:43;4.05;;;1.92;;
32172;SDS011;18679;45.190;5.722;2022-11-11T16:00:48;4.70;;;2.30;;
32172;SDS011;18679;45.190;5.722;2022-11-11T16:04:09;2.83;;;1.80;;
32172;SDS011;18679;45.190;5.722;2022-11-11T16:07:40;3.17;;;1.88;;
32172;SDS011;18679;45.190;5.722;2022-11-11T16:11:01;9.10;;;2.10;;
32172;SDS011;18679;45.190;5.722;2022-11-11T16:14:32;4.82;;;1.95;;
32172;SDS011;18679;45.190;5.722;2022-11-11T16:18:02;3.38;;;1.58;;
32172;SDS011;18679;45.190;5.722;2022-11-11T16:21:33;3.88;;;1.90;;
32172;SDS011;18679;45.190;5.722;2022-11-11T16:24:57;9.18;;;2.17;;
32172;SDS011;18679;45.190;5.722;2022-11-11T16:28:19;4.80;;;2.22;;
32172;SDS011;18679;45.190;5.722;2022-11-11T16:31:42;4.30;;;1.90;;
32172;SDS011;18679;45.190;5.722;2022-11-11T16:35:19;6.45;;;2.17;;
32172;SDS011;18679;45.190;5.722;2022-11-11T16:38:46;5.32;;;2.40;;
32172;SDS011;18679;45.190;5.722;2022-11-11T16:42:16;4.70;;;2.08;;
32172;SDS011;18679;45.190;5.722;2022-11-11T16:45:45;6.85;;;2.97;;
32172;SDS011;18679;45.190;5.722;2022-11-11T16:49:14;3.10;;;1.70;;
32172;SDS011;18679;45.190;5.722;2022-11-11T16:52:42;5.20;;;2.15;;
32172;SDS011;18679;45.190;5.722;2022-11-11T16:56:18;4.72;;;2.20;;
32172;SDS011;18679;45.190;5.722;2022-11-11T16:59:47;5.55;;;2.72;;
32172;SDS011;18679;45.190;5.722;2022-11-11T17:06:51;5.18;;;2.60;;
32172;SDS011;18679;45.190;5.722;2022-11-11T17:10:14;7.43;;;2.72;;
32172;SDS011;18679;45.190;5.722;2022-11-11T17:13:36;13.10;;;3.42;;
32172;SDS011;18679;45.190;5.722;2022-11-11T17:16:56;4.95;;;2.58;;
32172;SDS011;18679;45.190;5.722;2022-11-11T17:20:17;7.22;;;2.45;;
32172;SDS011;18679;45.190;5.722;2022-11-11T17:23:38;13.80;;;2.22;;
32172;SDS011;18679;45.190;5.722;2022-11-11T17:26:58;8.38;;;2.97;;
32172;SDS011;18679;45.190;5.722;2022-11-11T17:30:18;3.65;;;2.28;;
32172;SDS011;18679;45.190;5.722;2022-11-11T17:33:37;8.18;;;2.67;;
32172;SDS011;18679;45.190;5.722;2022-11-11T17:36:57;9.05;;;3.20;;
32172;SDS011;18679;45.190;5.722;2022-11-11T17:40:17;8.95;;;4.22;;
32172;SDS011;18679;45.190;5.722;2022-11-11T17:43:36;7.93;;;3.65;;
32172;SDS011;18679;45.190;5.722;2022-11-11T17:46:56;5.10;;;2.53;;
32172;SDS011;18679;45.190;5.722;2022-11-11T17:50:15;6.10;;;2.40;;
32172;SDS011;18679;45.190;5.722;2022-11-11T17:53:35;9.13;;;3.40;;
32172;SDS011;18679;45.190;5.722;2022-11-11T17:56:55;6.65;;;2.85;;
32172;SDS011;18679;45.190;5.722;2022-11-11T18:00:15;7.65;;;3.25;;
32172;SDS011;18679;45.190;5.722;2022-11-11T18:03:36;5.15;;;3.15;;
32172;SDS011;18679;45.190;5.722;2022-11-11T18:06:55;5.38;;;2.63;;
32172;SDS011;18679;45.190;5.722;2022-11-11T18:10:15;9.50;;;3.97;;
32172;SDS011;18679;45.190;5.722;2022-11-11T18:13:35;7.93;;;3.47;;
32172;SDS011;18679;45.190;5.722;2022-11-11T18:16:54;6.88;;;3.28;;
32172;SDS011;18679;45.190;5.722;2022-11-11T18:20:14;7.15;;;3.40;;
32172;SDS011;18679;45.190;5.722;2022-11-11T18:23:34;7.70;;;3.53;;
32172;SDS011;18679;45.190;5.722;2022-11-11T18:26:55;8.20;;;3.30;;
32172;SDS011;18679;45.190;5.722;2022-11-11T18:30:15;10.50;;;3.72;;
32172;SDS011;18679;45.190;5.722;2022-11-11T18:33:35;10.40;;;3.83;;
32172;SDS011;18679;45.190;5.722;2022-11-11T18:36:55;7.68;;;3.03;;
32172;SDS011;18679;45.190;5.722;2022-11-11T18:40:15;8.95;;;3.65;;
32172;SDS011;18679;45.190;5.722;2022-11-11T18:43:35;7.13;;;3.63;;
32172;SDS011;18679;45.190;5.722;2022-11-11T18:47:05;9.27;;;3.80;;
32172;SDS011;18679;45.190;5.722;2022-11-11T18:50:25;15.73;;;5.35;;
32172;SDS011;18679;45.190;5.722;2022-11-11T18:53:44;13.10;;;4.10;;
32172;SDS011;18679;45.190;5.722;2022-11-11T18:57:05;10.82;;;4.82;;
32172;SDS011;18679;45.190;5.722;2022-11-11T19:00:25;14.55;;;4.05;;
32172;SDS011;18679;45.190;5.722;2022-11-11T19:03:45;10.50;;;4.70;;
32172;SDS011;18679;45.190;5.722;2022-11-11T19:07:05;19.92;;;5.05;;
32172;SDS011;18679;45.190;5.722;2022-11-11T19:10:24;12.93;;;4.75;;
32172;SDS011;18679;45.190;5.722;2022-11-11T19:13:44;12.57;;;4.72;;
32172;SDS011;18679;45.190;5.722;2022-11-11T19:17:04;14.13;;;5.00;;
32172;SDS011;18679;45.190;5.722;2022-11-11T19:20:24;22.63;;;5.00;;
32172;SDS011;18679;45.190;5.722;2022-11-11T19:23:44;11.60;;;4.85;;
32172;SDS011;18679;45.190;5.722;2022-11-11T19:27:04;15.63;;;4.65;;
32172;SDS011;18679;45.190;5.722;2022-11-11T19:30:24;9.82;;;4.97;;
32172;SDS011;18679;45.190;5.722;2022-11-11T19:33:43;14.00;;;5.10;;
32172;SDS011;18679;45.190;5.722;2022-11-11T19:37:04;13.02;;;4.60;;
32172;SDS011;18679;45.190;5.722;2022-11-11T19:40:27;12.93;;;4.60;;
32172;SDS011;18679;45.190;5.722;2022-11-11T19:43:47;16.40;;;4.65;;
32172;SDS011;18679;45.190;5.722;2022-11-11T19:47:08;9.55;;;4.22;;
32172;SDS011;18679;45.190;5.722;2022-11-11T19:50:27;10.60;;;5.18;;
32172;SDS011;18679;45.190;5.722;2022-11-11T19:53:47;9.82;;;5.93;;
32172;SDS011;18679;45.190;5.722;2022-11-11T19:57:07;13.65;;;5.22;;
32172;SDS011;18679;45.190;5.722;2022-11-11T20:00:27;11.93;;;5.03;;
32172;SDS011;18679;45.190;5.722;2022-11-11T20:03:48;14.75;;;5.05;;
32172;SDS011;18679;45.190;5.722;2022-11-11T20:07:09;12.32;;;4.53;;
32172;SDS011;18679;45.190;5.722;2022-11-11T20:10:33;9.40;;;4.10;;
32172;SDS011;18679;45.190;5.722;2022-11-11T20:13:57;11.50;;;4.85;;
32172;SDS011;18679;45.190;5.722;2022-11-11T20:17:16;18.25;;;6.07;;
32172;SDS011;18679;45.190;5.722;2022-11-11T20:20:36;10.82;;;4.38;;
32172;SDS011;18679;45.190;5.722;2022-11-11T20:23:57;9.73;;;5.45;;
32172;SDS011;18679;45.190;5.722;2022-11-11T20:27:17;9.50;;;4.80;;
32172;SDS011;18679;45.190;5.722;2022-11-11T20:30:37;10.45;;;4.88;;
32172;SDS011;18679;45.190;5.722;2022-11-11T20:33:57;8.68;;;4.68;;
32172;SDS011;18679;45.190;5.722;2022-11-11T20:37:17;11.88;;;5.22;;
32172;SDS011;18679;45.190;5.722;2022-11-11T20:40:36;12.40;;;5.80;;
32172;SDS011;18679;45.190;5.722;2022-11-11T20:43:58;9.43;;;4.97;;
32172;SDS011;18679;45.190;5.722;2022-11-11T20:47:18;8.55;;;4.93;;
32172;SDS011;18679;45.190;5.722;2022-11-11T20:50:37;10.77;;;4.95;;
32172;SDS011;18679;45.190;5.722;2022-11-11T20:53:57;15.77;;;5.60;;
32172;SDS011;18679;45.190;5.722;2022-11-11T20:57:17;14.10;;;6.18;;
32172;SDS011;18679;45.190;5.722;2022-11-11T21:00:37;12.38;;;5.95;;
32172;SDS011;18679;45.190;5.722;2022-11-11T21:03:57;14.98;;;6.47;;
32172;SDS011;18679;45.190;5.722;2022-11-11T21:07:17;9.50;;;5.47;;
32172;SDS011;18679;45.190;5.722;2022-11-11T21:10:37;13.95;;;6.30;;
32172;SDS011;18679;45.190;5.722;2022-11-11T21:13:57;16.02;;;6.00;;
32172;SDS011;18679;45.190;5.722;2022-11-11T21:17:20;11.38;;;5.90;;
32172;SDS011;18679;45.190;5.722;2022-11-11T21:20:40;13.88;;;5.75;;
32172;SDS011;18679;45.190;5.722;2022-11-11T21:24:01;14.23;;;6.13;;
32172;SDS011;18679;45.190;5.722;2022-11-11T21:27:25;16.23;;;5.75;;
32172;SDS011;18679;45.190;5.722;2022-11-11T21:30:45;11.23;;;5.30;;
32172;SDS011;18679;45.190;5.722;2022-11-11T21:34:06;12.75;;;5.70;;
32172;SDS011;18679;45.190;5.722;2022-11-11T21:37:27;18.95;;;7.15;;
32172;SDS011;18679;45.190;5.722;2022-11-11T21:40:48;12.05;;;5.30;;
32172;SDS011;18679;45.190;5.722;2022-11-11T21:44:08;11.43;;;5.38;;
32172;SDS011;18679;45.190;5.722;2022-11-11T21:47:28;14.07;;;5.43;;
32172;SDS011;18679;45.190;5.722;2022-11-11T21:50:48;16.13;;;6.18;;
32172;SDS011;18679;45.190;5.722;2022-11-11T21:54:08;11.98;;;5.07;;
32172;SDS011;18679;45.190;5.722;2022-11-11T21:57:28;10.80;;;5.03;;
32172;SDS011;18679;45.190;5.722;2022-11-11T22:00:51;14.13;;;5.72;;
32172;SDS011;18679;45.190;5.722;2022-11-11T22:04:11;10.63;;;5.28;;
32172;SDS011;18679;45.190;5.722;2022-11-11T22:07:34;11.38;;;4.65;;
32172;SDS011;18679;45.190;5.722;2022-11-11T22:10:54;13.32;;;5.10;;
32172;SDS011;18679;45.190;5.722;2022-11-11T22:14:24;10.90;;;5.80;;
32172;SDS011;18679;45.190;5.722;2022-11-11T22:17:44;10.77;;;4.60;;
32172;SDS011;18679;45.190;5.722;2022-11-11T22:21:09;8.60;;;4.63;;
32172;SDS011;18679;45.190;5.722;2022-11-11T22:24:34;13.43;;;5.07;;
32172;SDS011;18679;45.190;5.722;2022-11-11T22:27:54;13.07;;;5.57;;
32172;SDS011;18679;45.190;5.722;2022-11-11T22:31:18;14.25;;;4.90;;
32172;SDS011;18679;45.190;5.722;2022-11-11T22:34:39;11.05;;;5.50;;
32172;SDS011;18679;45.190;5.722;2022-11-11T22:38:00;11.98;;;4.50;;